WFDK1: Walnut River, Winfield, KS

Data processed at Sat Jan 12 2019 23:32


All information presented herein is the property of the government of the United States of America and may be revised or deleted at any time without prior notice.
Dissemination of this information without the expressed written consent of the Public Affairs Office, Tulsa District U.S. Army Corps of Engineers is strictly prohibited.
These data are gathered electronically and, as presented, have not undergone any form of quality control. These data are not guaranteed to be valid or correct.
Go to home page.
Go to station list.
Go to home page.

Upstream stations:

Downstream station:
Previous Day
Next Day
Current Day
    
SHEF ID:       WFDK1     WALNUT R AT WINFIELD, KS
STATION TYPE:  

               PRECIP     STAGE  RIV-FLOW  BAT-LOAD
                   in        ft       cfs      volt
              Ccp-Rev   Ccp-Rev   Ccp-Rev   Ccp-Rev
(US/Central)
01/12 00:00      0.01      2.70       772     12.41
01/12 01:00      0.05      2.71       777     12.41
01/12 02:00      0.01      2.75       798     12.41
01/12 03:00      0.00      2.77       808     12.41
01/12 04:00      0.01      2.81       829     12.41
01/12 05:00      0.03      2.87       860     12.41
01/12 06:00      0.01      2.93       889     12.41
01/12 07:00      0.00      2.99       919      ----
01/12 08:00      0.00      3.06       954     12.41
01/12 09:00      0.00      3.12       983     12.41
01/12 10:00      0.01      3.19      1017     12.41
01/12 11:00      0.02      3.28      1061     12.57
01/12 12:00      0.01      3.37      1109     12.73
01/12 13:00      0.12      3.45      1151     12.81
01/12 14:00      0.05      3.52      1193     12.73
01/12 15:00      0.02      3.57      1225     12.33
01/12 16:00      0.01      3.62      1257     12.57
01/12 17:00      0.01      3.65      1276     12.41
01/12 18:00      0.00      3.68      1295     12.41
01/12 19:00      0.00      3.70      1308     12.41
01/12 20:00      0.00      3.74      1334     12.41
01/12 21:00      0.00      3.78      1360     12.41
01/12 22:00      0.00      3.83      1392     12.41
01/12 23:00      0.00      3.88      1425     12.41